Time;durP1;ratioP1;P1;durP2;ratioP2;P2;SDS_P1;SDS_P2;PMS_P1;PMS_P2;Temp;Humidity;BMP_temperature;BMP_pressure;BME280_temperature;BME280_humidity;BME280_pressure;Samples;Min_cycle;Max_cycle;Signal;HPM_P1;HPM_P2
2022/10/07 00:00:31;;;;;;;;;;;;;;;11.87;100.00;101758.28;5550978;32;34231;-70
2022/10/07 00:03:39;;;;;;;;;;;;;;;11.80;100.00;101757.19;5550846;32;34663;-70
2022/10/07 00:06:46;;;;;;;;;;;;;;;11.79;100.00;101744.88;5550168;32;34917;-70
2022/10/07 00:09:52;;;;;;;;;;;;;;;11.77;100.00;101759.16;5550501;32;34561;-69
2022/10/07 00:13:00;;;;;;;;;;;;;;;11.76;100.00;101752.16;5550692;32;34251;-69
2022/10/07 00:16:14;;;;;;;;;;;;;;;11.68;100.00;101759.13;5549740;32;34209;-70
2022/10/07 00:19:19;;;;;;;;;;;;;;;11.55;100.00;101754.09;5550323;32;34094;-70
2022/10/07 00:22:26;;;;;;;;;;;;;;;11.49;100.00;101761.78;5550609;32;34091;-70
2022/10/07 00:25:31;;;;;;;;;;;;;;;11.45;100.00;101755.94;5550700;32;34249;-70
2022/10/07 00:28:37;;;;;;;;;;;;;;;11.48;100.00;101752.13;5550126;32;34510;-70
2022/10/07 00:31:43;;;;;;;;;;;;;;;11.46;100.00;101757.59;5536906;32;34856;-70
2022/10/07 00:34:51;;;;;;;;;;;;;;;11.50;100.00;101755.50;5550074;32;34791;-69
2022/10/07 00:37:58;;;;;;;;;;;;;;;11.48;100.00;101742.34;5550007;32;34846;-70
2022/10/07 00:41:07;;;;;;;;;;;;;;;11.50;100.00;101745.72;5549862;32;34813;-69
2022/10/07 00:44:35;;;;;;;;;;;;;;;11.49;100.00;101743.19;5536081;32;35037;-70
2022/10/07 00:47:46;;;;;;;;;;;;;;;11.49;100.00;101741.38;5529956;32;34763;-70
2022/10/07 00:50:55;;;;;;;;;;;;;;;11.42;100.00;101742.09;5549764;32;34888;-70
2022/10/07 00:54:06;;;;;;;;;;;;;;;11.35;100.00;101739.13;5549772;32;34209;-69
2022/10/07 00:57:15;;;;;;;;;;;;;;;11.29;100.00;101750.31;5549658;32;34319;-70
2022/10/07 01:00:22;;;;;;;;;;;;;;;11.34;100.00;101737.44;5536536;32;34616;-70
2022/10/07 01:03:31;;;;;;;;;;;;;;;11.40;100.00;101733.41;5535404;32;34601;-69
2022/10/07 01:06:40;;;;;;;;;;;;;;;11.40;100.00;101731.59;5549364;32;34630;-70
2022/10/07 01:09:50;;;;;;;;;;;;;;;11.37;100.00;101734.53;5510855;32;34710;-70
2022/10/07 01:12:59;;;;;;;;;;;;;;;11.29;100.00;101727.25;5510144;32;34258;-69
2022/10/07 01:16:12;;;;;;;;;;;;;;;11.26;100.00;101727.53;5510797;32;34262;-70
2022/10/07 01:19:37;;;;;;;;;;;;;;;11.20;100.00;101729.91;5510847;32;34215;-70
2022/10/07 01:23:00;;;;;;;;;;;;;;;11.20;100.00;101735.22;5510598;32;34277;-69
2022/10/07 01:26:20;;;;;;;;;;;;;;;11.20;100.00;101727.25;5510616;32;33993;-70
2022/10/07 01:29:54;;;;;;;;;;;;;;;11.20;100.00;101730.75;5513549;32;34575;-70
2022/10/07 01:33:07;;;;;;;;;;;;;;;11.18;100.00;101730.03;5513427;32;34809;-70
2022/10/07 01:36:16;;;;;;;;;;;;;;;11.19;100.00;101730.88;5513361;32;34962;-70
2022/10/07 01:39:27;;;;;;;;;;;;;;;11.05;100.00;101731.28;5512641;32;34207;-70
2022/10/07 01:42:37;;;;;;;;;;;;;;;10.96;100.00;101724.97;5513416;32;34784;-70
2022/10/07 01:45:47;;;;;;;;;;;;;;;10.96;100.00;101729.44;5513230;32;34273;-70
2022/10/07 01:48:56;;;;;;;;;;;;;;;10.91;100.00;101729.88;5513268;32;34618;-70
2022/10/07 01:52:23;;;;;;;;;;;;;;;10.85;100.00;101727.75;5513155;32;34154;-70
2022/10/07 01:55:35;;;;;;;;;;;;;;;10.81;100.00;101721.03;5513149;32;34750;-70
2022/10/07 01:59:00;;;;;;;;;;;;;;;10.82;100.00;101726.22;5512413;32;34758;-70
2022/10/07 02:02:13;;;;;;;;;;;;;;;10.82;100.00;101720.06;5513175;32;34812;-70
2022/10/07 02:05:20;;;;;;;;;;;;;;;10.77;100.00;101727.59;5512461;32;34649;-70
2022/10/07 02:08:33;;;;;;;;;;;;;;;10.73;100.00;101724.38;5535152;32;34661;-70
2022/10/07 02:11:43;;;;;;;;;;;;;;;10.77;100.00;101722.28;5551685;32;34655;-70
2022/10/07 02:14:52;;;;;;;;;;;;;;;10.76;100.00;101715.31;5551707;32;34671;-70
2022/10/07 02:18:02;;;;;;;;;;;;;;;10.73;100.00;101716.44;5551900;32;34532;-70
2022/10/07 02:21:12;;;;;;;;;;;;;;;10.69;100.00;101714.19;5551572;32;34802;-70
2022/10/07 02:24:20;;;;;;;;;;;;;;;10.64;100.00;101722.56;5525363;32;34163;-70
2022/10/07 02:27:33;;;;;;;;;;;;;;;10.63;100.00;101722.69;5538290;32;34884;-70
2022/10/07 02:30:41;;;;;;;;;;;;;;;10.55;100.00;101719.88;5551437;32;34090;-70
2022/10/07 02:33:52;;;;;;;;;;;;;;;10.53;100.00;101714.69;5525259;32;35665;-70
2022/10/07 02:37:02;;;;;;;;;;;;;;;10.46;100.00;101713.53;5551331;32;34974;-70
2022/10/07 02:40:07;;;;;;;;;;;;;;;10.42;100.00;101720.94;5550997;32;34178;-70
2022/10/07 02:43:16;;;;;;;;;;;;;;;10.48;100.00;101719.56;5538284;32;34604;-70
2022/10/07 02:46:26;;;;;;;;;;;;;;;10.64;100.00;101711.94;5551368;32;34170;-70
2022/10/07 02:49:36;;;;;;;;;;;;;;;10.71;100.00;101714.87;5551280;32;34217;-70
2022/10/07 02:52:47;;;;;;;;;;;;;;;10.73;100.00;101715.59;5538354;32;34190;-70
2022/10/07 02:55:54;;;;;;;;;;;;;;;10.76;100.00;101716.16;5551180;32;34447;-70
2022/10/07 02:59:04;;;;;;;;;;;;;;;10.79;100.00;101712.41;5551203;32;34559;-70
2022/10/07 03:02:13;;;;;;;;;;;;;;;10.75;100.00;101703.84;5551158;32;34180;-70
2022/10/07 03:05:21;;;;;;;;;;;;;;;10.79;100.00;101704.44;5551207;32;34751;-70
2022/10/07 03:08:29;;;;;;;;;;;;;;;10.84;100.00;101704.84;5550790;32;34923;-71
2022/10/07 03:11:37;;;;;;;;;;;;;;;10.84;100.00;101703.00;5538138;32;34682;-70
2022/10/07 03:14:43;;;;;;;;;;;;;;;10.90;100.00;101709.59;5551136;32;34953;-70
2022/10/07 03:17:54;;;;;;;;;;;;;;;10.80;100.00;101712.22;5551188;32;34621;-71
2022/10/07 03:21:03;;;;;;;;;;;;;;;10.74;100.00;101710.16;5551109;32;34138;-70
2022/10/07 03:24:12;;;;;;;;;;;;;;;10.85;100.00;101704.69;5537896;32;34290;-71
2022/10/07 03:27:18;;;;;;;;;;;;;;;10.75;100.00;101705.66;5551072;32;34590;-70
2022/10/07 03:30:27;;;;;;;;;;;;;;;10.67;100.00;101702.84;5536760;32;32667;-70
2022/10/07 03:33:32;;;;;;;;;;;;;;;10.63;100.00;101712.91;5550849;32;34949;-71
2022/10/07 03:36:38;;;;;;;;;;;;;;;10.51;100.00;101711.31;5550903;32;34261;-70
2022/10/07 03:39:43;;;;;;;;;;;;;;;10.46;100.00;101709.06;5550855;32;34841;-71
2022/10/07 03:42:51;;;;;;;;;;;;;;;10.46;100.00;101711.72;5536666;32;34545;-70
2022/10/07 03:46:01;;;;;;;;;;;;;;;10.44;100.00;101703.06;5550699;32;34776;-71
2022/10/07 03:49:10;;;;;;;;;;;;;;;10.39;100.00;101699.16;5550772;32;34224;-71
2022/10/07 03:52:17;;;;;;;;;;;;;;;10.31;100.00;101702.44;5535828;32;35019;-70
2022/10/07 03:55:25;;;;;;;;;;;;;;;10.30;100.00;101706.09;5536582;32;34656;-70
2022/10/07 03:58:33;;;;;;;;;;;;;;;10.22;100.00;101705.91;5550928;32;34289;-69
2022/10/07 04:01:40;;;;;;;;;;;;;;;10.16;100.00;101700.31;5550550;32;34867;-70
2022/10/07 04:04:47;;;;;;;;;;;;;;;10.16;100.00;101703.81;5536608;32;33914;-70
2022/10/07 04:07:54;;;;;;;;;;;;;;;10.32;100.00;101698.84;5531778;32;609408;-70
2022/10/07 04:11:03;;;;;;;;;;;;;;;10.36;100.00;101686.97;5550529;32;34555;-70
2022/10/07 04:14:11;;;;;;;;;;;;;;;10.24;100.00;101693.38;5550766;32;34286;-69
2022/10/07 04:17:20;;;;;;;;;;;;;;;10.17;100.00;101694.84;5550381;32;34636;-69
2022/10/07 04:20:29;;;;;;;;;;;;;;;10.21;100.00;101692.81;5550419;32;34256;-69
2022/10/07 04:23:39;;;;;;;;;;;;;;;10.21;100.00;101690.16;5535891;32;34831;-69
2022/10/07 04:26:47;;;;;;;;;;;;;;;10.13;100.00;101685.47;5537237;32;34663;-69
2022/10/07 04:29:54;;;;;;;;;;;;;;;10.04;100.00;101692.41;5536131;32;34158;-68
2022/10/07 04:33:04;;;;;;;;;;;;;;;10.04;100.00;101686.25;5537076;32;34306;-69
2022/10/07 04:36:11;;;;;;;;;;;;;;;9.93;100.00;101679.22;5536359;32;34744;-69
2022/10/07 04:39:17;;;;;;;;;;;;;;;9.89;100.00;101684.91;5549993;32;34783;-69
2022/10/07 04:45:53;;;;;;;;;;;;;;;9.77;100.00;101691.28;5535817;32;35631;-69
2022/10/07 04:48:59;;;;;;;;;;;;;;;9.74;100.00;101696.81;5549597;32;34421;-69
2022/10/07 04:52:04;;;;;;;;;;;;;;;9.64;100.00;101695.94;5549623;32;34698;-69
2022/10/07 04:55:13;;;;;;;;;;;;;;;9.62;100.00;101705.84;5549622;32;34802;-69
2022/10/07 04:58:20;;;;;;;;;;;;;;;9.60;100.00;101700.66;5549403;32;34415;-70
2022/10/07 05:01:27;;;;;;;;;;;;;;;9.60;100.00;101696.19;5550262;32;34829;-70
2022/10/07 05:04:34;;;;;;;;;;;;;;;9.60;100.00;101684.75;5552123;32;34665;-70
2022/10/07 05:07:40;;;;;;;;;;;;;;;9.59;100.00;101694.50;5551945;32;34774;-70
2022/10/07 05:10:46;;;;;;;;;;;;;;;9.59;100.00;101698.97;5551910;32;34289;-69
2022/10/07 05:13:51;;;;;;;;;;;;;;;9.57;100.00;101703.56;5551984;32;34166;-69
2022/10/07 05:16:54;;;;;;;;;;;;;;;9.57;100.00;101707.06;5538261;32;34275;-70
2022/10/07 05:20:00;;;;;;;;;;;;;;;9.77;100.00;101715.13;5538116;32;35191;-70
2022/10/07 05:23:04;;;;;;;;;;;;;;;9.82;100.00;101715.59;5551745;32;34559;-69
2022/10/07 05:26:09;;;;;;;;;;;;;;;9.87;100.00;101716.88;5551748;32;34776;-70
2022/10/07 05:29:13;;;;;;;;;;;;;;;9.94;100.00;101714.53;5537835;32;34581;-70
2022/10/07 05:32:17;;;;;;;;;;;;;;;10.01;100.00;101718.34;5551570;32;34737;-70
2022/10/07 05:35:21;;;;;;;;;;;;;;;10.10;100.00;101712.25;5551476;32;34624;-70
2022/10/07 05:38:25;;;;;;;;;;;;;;;10.20;100.00;101715.81;5551302;32;34131;-70
2022/10/07 05:41:29;;;;;;;;;;;;;;;10.26;100.00;101709.97;5551200;32;34286;-70
2022/10/07 05:44:32;;;;;;;;;;;;;;;10.33;100.00;101711.13;5537312;32;33898;-70
2022/10/07 05:47:36;;;;;;;;;;;;;;;10.39;100.00;101707.94;5537386;32;35734;-71
2022/10/07 05:50:39;;;;;;;;;;;;;;;10.49;100.00;101705.31;5550838;32;34840;-70
2022/10/07 05:53:43;;;;;;;;;;;;;;;10.56;100.00;101714.41;5550757;32;34456;-70
2022/10/07 05:56:48;;;;;;;;;;;;;;;10.65;100.00;101712.78;5537668;32;32650;-70
2022/10/07 05:59:52;;;;;;;;;;;;;;;10.68;100.00;101720.47;5551423;32;34824;-70
2022/10/07 06:02:57;;;;;;;;;;;;;;;10.82;100.00;101725.37;5537265;32;36005;-71
2022/10/07 06:06:01;;;;;;;;;;;;;;;10.89;100.00;101726.53;5536901;32;34721;-71
2022/10/07 06:15:48;;;;;;;;;;;;;;;11.26;100.00;101724.03;5537222;32;34342;-70
2022/10/07 06:18:53;;;;;;;;;;;;;;;11.31;100.00;101725.31;5536930;32;32903;-70
2022/10/07 06:21:57;;;;;;;;;;;;;;;11.39;100.00;101727.25;5551389;32;34072;-71
2022/10/07 06:25:01;;;;;;;;;;;;;;;11.34;100.00;101721.50;5550830;32;34410;-71
2022/10/07 06:28:05;;;;;;;;;;;;;;;11.44;100.00;101721.50;5537562;32;34753;-70
2022/10/07 06:31:09;;;;;;;;;;;;;;;11.62;100.00;101727.78;5550879;32;34136;-71
2022/10/07 06:34:13;;;;;;;;;;;;;;;11.70;100.00;101722.63;5551092;32;34789;-71
2022/10/07 06:37:19;;;;;;;;;;;;;;;11.68;100.00;101729.88;5550802;32;34726;-71
2022/10/07 06:40:22;;;;;;;;;;;;;;;11.81;100.00;101724.31;5551133;32;34696;-71
2022/10/07 06:43:27;;;;;;;;;;;;;;;11.80;100.00;101727.94;5550835;32;34840;-70
2022/10/07 06:46:31;;;;;;;;;;;;;;;11.87;100.00;101724.56;5550860;32;34827;-71
2022/10/07 06:49:35;;;;;;;;;;;;;;;12.04;100.00;101725.66;5537376;32;34186;-70
2022/10/07 06:52:40;;;;;;;;;;;;;;;12.05;100.00;101719.34;5537199;32;33054;-70
2022/10/07 06:55:45;;;;;;;;;;;;;;;12.09;100.00;101726.91;5550970;32;34244;-70
2022/10/07 06:58:48;;;;;;;;;;;;;;;12.20;100.00;101725.84;5537593;32;34170;-70
2022/10/07 07:01:53;;;;;;;;;;;;;;;12.28;100.00;101725.16;5550881;32;34095;-70
2022/10/07 07:04:56;;;;;;;;;;;;;;;12.50;100.00;101716.78;5550716;32;34857;-71
2022/10/07 07:08:03;;;;;;;;;;;;;;;12.61;100.00;101719.25;5550623;32;34906;-71
2022/10/07 07:14:33;;;;;;;;;;;;;;;12.82;100.00;101719.00;5550889;32;34771;-71
2022/10/07 07:17:36;;;;;;;;;;;;;;;13.11;100.00;101722.34;5551389;32;34164;-71
2022/10/07 07:20:41;;;;;;;;;;;;;;;13.26;100.00;101712.81;5536891;32;34492;-70
2022/10/07 07:23:45;;;;;;;;;;;;;;;13.59;100.00;101721.94;5550718;32;34180;-70
2022/10/07 07:26:50;;;;;;;;;;;;;;;14.39;100.00;101717.28;5549677;32;34101;-70
2022/10/07 07:29:54;;;;;;;;;;;;;;;15.40;100.00;101718.88;5550765;32;34012;-71
2022/10/07 07:32:57;;;;;;;;;;;;;;;16.42;100.00;101719.91;5536570;32;34310;-70
2022/10/07 07:36:01;;;;;;;;;;;;;;;18.05;95.54;101715.13;5536362;32;36946;-71
2022/10/07 07:39:07;;;;;;;;;;;;;;;20.10;79.17;101712.75;5537059;32;35452;-70
2022/10/07 07:42:11;;;;;;;;;;;;;;;21.35;70.43;101716.81;5550839;32;34194;-71
2022/10/07 07:45:14;;;;;;;;;;;;;;;22.14;64.84;101724.09;5524150;32;34933;-70
2022/10/07 07:48:17;;;;;;;;;;;;;;;23.65;60.57;101713.38;5550678;32;34301;-70
2022/10/07 07:51:21;;;;;;;;;;;;;;;25.38;53.48;101711.09;5551028;32;34751;-70
2022/10/07 07:54:26;;;;;;;;;;;;;;;26.22;50.72;101712.59;5536872;32;35104;-70
2022/10/07 07:57:30;;;;;;;;;;;;;;;26.71;47.47;101720.19;5537411;32;34265;-70
2022/10/07 08:00:34;;;;;;;;;;;;;;;27.36;46.69;101716.19;5550481;32;34215;-70
2022/10/07 08:03:41;;;;;;;;;;;;;;;27.86;44.81;101725.25;5550676;32;34648;-70
2022/10/07 08:06:46;;;;;;;;;;;;;;;28.19;42.16;101713.47;5550098;32;34241;-70
2022/10/07 08:09:50;;;;;;;;;;;;;;;28.24;40.82;101708.06;5550393;32;34577;-70
2022/10/07 08:12:54;;;;;;;;;;;;;;;28.28;40.94;101705.66;5536535;32;33549;-70
2022/10/07 08:15:57;;;;;;;;;;;;;;;28.30;39.84;101704.34;5535889;32;34540;-70
2022/10/07 08:19:03;;;;;;;;;;;;;;;28.74;39.30;101699.72;5550176;32;34169;-70
2022/10/07 08:22:09;;;;;;;;;;;;;;;28.57;40.14;101698.09;5536454;32;33733;-69
2022/10/07 08:25:14;;;;;;;;;;;;;;;27.60;41.20;101704.09;5550059;32;34667;-69
2022/10/07 08:28:19;;;;;;;;;;;;;;;26.76;43.32;101700.38;5535786;32;34608;-70
2022/10/07 08:31:26;;;;;;;;;;;;;;;26.10;45.12;101693.53;5550367;32;34527;-70
2022/10/07 08:34:31;;;;;;;;;;;;;;;23.97;50.56;101695.13;5549509;32;34855;-70
2022/10/07 08:37:35;;;;;;;;;;;;;;;21.03;61.01;101682.50;5551046;32;34835;-70
2022/10/07 08:40:48;;;;;;;;;;;;;;;20.70;62.20;101680.56;5538479;32;35041;-69
2022/10/07 08:43:52;;;;;;;;;;;;;;;19.38;67.93;101675.34;5538139;32;34960;-70
2022/10/07 08:47:05;;;;;;;;;;;;;;;19.11;69.44;101676.97;5552071;32;34825;-69
2022/10/07 08:50:12;;;;;;;;;;;;;;;18.56;72.69;101666.84;5552039;32;34795;-69
2022/10/07 08:53:30;;;;;;;;;;;;;;;18.34;74.07;101663.25;5552034;32;34696;-68
2022/10/07 08:56:34;;;;;;;;;;;;;;;17.99;79.33;101659.47;5551840;32;34955;-68
2022/10/07 08:59:43;;;;;;;;;;;;;;;18.03;77.93;101659.91;5551818;32;34792;-68
2022/10/07 09:03:05;;;;;;;;;;;;;;;17.75;79.46;101655.19;5552028;32;34520;-68
2022/10/07 09:06:20;;;;;;;;;;;;;;;17.63;81.78;101650.44;5551904;32;34798;-68
2022/10/07 09:09:34;;;;;;;;;;;;;;;17.54;82.50;101648.81;5551476;32;34733;-68
2022/10/07 09:12:44;;;;;;;;;;;;;;;17.56;81.73;101641.44;5552124;32;34752;-68
2022/10/07 09:15:51;;;;;;;;;;;;;;;17.73;84.14;101638.41;5551756;32;34247;-68
2022/10/07 09:18:58;;;;;;;;;;;;;;;17.51;86.23;101628.56;5551624;32;34122;-68
2022/10/07 09:22:14;;;;;;;;;;;;;;;17.54;86.70;101632.72;5551673;32;34352;-68
2022/10/07 09:25:22;;;;;;;;;;;;;;;17.74;84.74;101632.03;5537540;32;33144;-68
2022/10/07 09:28:28;;;;;;;;;;;;;;;17.68;87.32;101632.78;5551673;32;34133;-68
2022/10/07 09:31:32;;;;;;;;;;;;;;;17.83;84.39;101630.09;5537772;32;34607;-68
2022/10/07 09:34:37;;;;;;;;;;;;;;;17.98;84.41;101622.88;5537661;32;34233;-67
2022/10/07 09:38:02;;;;;;;;;;;;;;;18.04;83.79;101621.31;5551490;32;34220;-68
2022/10/07 09:41:14;;;;;;;;;;;;;;;18.11;81.68;101617.66;5551530;32;34158;-68
2022/10/07 09:44:24;;;;;;;;;;;;;;;18.13;85.19;101607.59;5551643;32;34635;-69
2022/10/07 09:47:35;;;;;;;;;;;;;;;18.18;84.30;101602.50;5537698;32;34205;-68
2022/10/07 09:50:45;;;;;;;;;;;;;;;18.36;82.22;101594.00;5537401;32;34408;-67
2022/10/07 09:53:56;;;;;;;;;;;;;;;18.35;83.13;101588.84;5551763;32;34183;-68
2022/10/07 09:57:01;;;;;;;;;;;;;;;18.36;83.48;101591.31;5551463;32;34868;-67
2022/10/07 10:00:11;;;;;;;;;;;;;;;18.38;83.85;101573.19;5538045;32;34274;-69
2022/10/07 10:03:16;;;;;;;;;;;;;;;18.53;82.72;101581.19;5537700;32;33411;-69
2022/10/07 10:06:20;;;;;;;;;;;;;;;18.58;81.02;101568.87;5536960;32;32796;-69
2022/10/07 10:09:25;;;;;;;;;;;;;;;18.54;81.13;101561.41;5551190;32;34325;-69
2022/10/07 10:12:31;;;;;;;;;;;;;;;18.67;79.71;101567.72;5551464;32;34647;-67
2022/10/07 10:15:38;;;;;;;;;;;;;;;18.85;78.20;101561.06;5551110;32;34818;-68
2022/10/07 10:18:51;;;;;;;;;;;;;;;18.89;78.43;101563.16;5551200;32;34161;-67
2022/10/07 10:21:57;;;;;;;;;;;;;;;18.97;75.64;101554.16;5537424;32;32927;-66
2022/10/07 10:28:25;;;;;;;;;;;;;;;19.02;73.92;101544.47;5551348;32;34853;-68
2022/10/07 10:31:44;;;;;;;;;;;;;;;19.10;73.29;101544.31;5551193;32;34610;-67
2022/10/07 10:34:54;;;;;;;;;;;;;;;19.33;73.05;101540.53;5551001;32;34412;-67
2022/10/07 10:38:04;;;;;;;;;;;;;;;19.62;71.63;101531.44;5537428;32;34144;-67
2022/10/07 10:41:29;;;;;;;;;;;;;;;19.77;72.03;101529.44;5536761;32;35261;-67
2022/10/07 10:44:56;;;;;;;;;;;;;;;19.94;70.70;101522.69;5550877;32;34492;-67
2022/10/07 10:48:15;;;;;;;;;;;;;;;20.12;70.56;101522.13;5519488;32;34334;-67
2022/10/07 10:51:30;;;;;;;;;;;;;;;20.39;68.32;101522.00;5524700;32;35664;-68
2022/10/07 10:54:55;;;;;;;;;;;;;;;20.75;64.60;101518.13;5551127;32;34862;-67
2022/10/07 10:58:06;;;;;;;;;;;;;;;21.78;62.04;101516.53;5551157;32;34294;-67
2022/10/07 11:01:26;;;;;;;;;;;;;;;25.16;50.98;101512.56;5536962;32;34479;-67
2022/10/07 11:04:48;;;;;;;;;;;;;;;27.16;45.30;101505.00;5550897;32;34327;-68
2022/10/07 11:07:57;;;;;;;;;;;;;;;29.45;39.43;101500.00;5552995;32;34540;-69
2022/10/07 11:11:11;;;;;;;;;;;;;;;32.19;33.63;101499.66;5524593;32;33156;-70
2022/10/07 11:14:19;;;;;;;;;;;;;;;33.80;31.84;101490.13;5550906;32;34830;-70
2022/10/07 11:17:23;;;;;;;;;;;;;;;35.94;26.77;101484.09;5537211;32;34521;-70
2022/10/07 11:20:35;;;;;;;;;;;;;;;37.05;25.02;101483.28;5551219;32;34697;-70
2022/10/07 11:24:02;;;;;;;;;;;;;;;33.93;28.77;101467.37;5550834;32;34237;-70
2022/10/07 11:27:32;;;;;;;;;;;;;;;36.01;25.33;101464.34;5550667;32;34862;-70
2022/10/07 11:30:40;;;;;;;;;;;;;;;37.27;24.24;101466.66;5548235;32;34786;-69
2022/10/07 11:33:48;;;;;;;;;;;;;;;37.46;23.90;101460.84;5550608;32;34366;-69
2022/10/07 11:36:53;;;;;;;;;;;;;;;36.40;25.01;101438.84;5550767;32;34310;-69
2022/10/07 11:39:58;;;;;;;;;;;;;;;33.14;29.43;101447.69;5550474;32;34848;-69
2022/10/07 11:43:05;;;;;;;;;;;;;;;33.16;29.27;101436.44;5550390;32;34946;-69
2022/10/07 11:46:13;;;;;;;;;;;;;;;32.71;30.59;101422.06;5550477;32;34819;-68
2022/10/07 11:49:19;;;;;;;;;;;;;;;34.99;26.48;101434.47;5550465;32;34300;-68
2022/10/07 11:52:25;;;;;;;;;;;;;;;35.60;24.98;101423.81;5549703;32;34885;-69
2022/10/07 11:55:32;;;;;;;;;;;;;;;36.72;22.93;101421.13;5550408;32;34901;-69
2022/10/07 11:58:37;;;;;;;;;;;;;;;36.11;23.89;101412.44;5550451;32;34341;-69
2022/10/07 12:01:46;;;;;;;;;;;;;;;38.61;21.49;101416.69;5550410;32;34054;-69
2022/10/07 12:04:49;;;;;;;;;;;;;;;39.34;21.03;101400.72;5536716;32;34511;-69
2022/10/07 12:07:56;;;;;;;;;;;;;;;38.73;21.21;101404.91;5535639;32;32947;-69
2022/10/07 12:11:13;;;;;;;;;;;;;;;37.59;22.62;101389.87;5549349;32;34551;-69
2022/10/07 12:14:42;;;;;;;;;;;;;;;38.94;21.28;101385.56;5550062;32;34267;-68
2022/10/07 12:18:15;;;;;;;;;;;;;;;34.85;25.30;101385.66;5533836;32;34497;-68
2022/10/07 12:21:19;;;;;;;;;;;;;;;32.57;28.34;101368.87;5528870;32;34472;-68
2022/10/07 12:24:22;;;;;;;;;;;;;;;34.08;26.62;101348.72;5549895;32;34939;-70
2022/10/07 12:27:28;;;;;;;;;;;;;;;34.64;26.68;101362.34;5536449;32;34150;-68
2022/10/07 12:30:38;;;;;;;;;;;;;;;33.00;28.66;101353.28;5536450;32;34604;-68
2022/10/07 12:33:44;;;;;;;;;;;;;;;30.55;32.10;101351.63;5549939;32;34269;-68
2022/10/07 12:36:47;;;;;;;;;;;;;;;28.73;36.23;101343.03;5549208;32;34387;-68
2022/10/07 12:39:51;;;;;;;;;;;;;;;27.60;40.34;101336.88;5535771;32;34847;-68
2022/10/07 12:43:09;;;;;;;;;;;;;;;27.65;40.64;101331.47;5549831;32;34493;-68
2022/10/07 12:46:15;;;;;;;;;;;;;;;26.90;40.79;101325.97;5536002;32;34919;-68
2022/10/07 12:49:24;;;;;;;;;;;;;;;25.78;43.78;101319.84;5550105;32;34839;-67
2022/10/07 12:52:44;;;;;;;;;;;;;;;24.65;47.16;101315.91;5549576;32;34907;-68
2022/10/07 12:55:50;;;;;;;;;;;;;;;24.04;48.31;101300.09;5549556;32;34299;-68
2022/10/07 13:02:30;;;;;;;;;;;;;;;23.85;49.71;101309.38;5549714;32;34112;-68
2022/10/07 13:05:50;;;;;;;;;;;;;;;23.57;50.60;101301.87;5548977;32;34422;-68
2022/10/07 13:09:07;;;;;;;;;;;;;;;23.56;51.61;101300.22;5548779;32;34793;-69
2022/10/07 13:12:19;;;;;;;;;;;;;;;23.76;51.83;101298.06;5548986;32;34351;-67
2022/10/07 13:15:45;;;;;;;;;;;;;;;23.30;51.54;101287.03;5548823;32;35379;-68
2022/10/07 13:18:50;;;;;;;;;;;;;;;23.42;53.52;101285.19;5549231;32;34124;-67
2022/10/07 13:22:02;;;;;;;;;;;;;;;23.04;53.23;101281.97;5548851;32;34642;-67
2022/10/07 13:25:07;;;;;;;;;;;;;;;23.12;52.31;101270.81;5551630;32;34703;-67
2022/10/07 13:28:15;;;;;;;;;;;;;;;22.97;53.20;101271.22;5537749;32;34646;-67
2022/10/07 13:31:20;;;;;;;;;;;;;;;23.00;52.56;101270.75;5537517;32;36259;-67
2022/10/07 13:34:27;;;;;;;;;;;;;;;22.98;54.26;101261.22;5551428;32;35035;-67
2022/10/07 13:37:34;;;;;;;;;;;;;;;22.88;51.77;101265.31;5537624;32;34291;-67
2022/10/07 13:40:39;;;;;;;;;;;;;;;23.11;50.60;101255.62;5537852;32;35618;-67
2022/10/07 13:43:43;;;;;;;;;;;;;;;23.75;48.70;101258.47;5525314;32;36476;-66
2022/10/07 13:46:54;;;;;;;;;;;;;;;23.46;48.65;101255.78;5550955;32;35154;-67
2022/10/07 13:50:00;;;;;;;;;;;;;;;23.20;49.97;101246.13;5551332;32;34131;-66
2022/10/07 13:53:04;;;;;;;;;;;;;;;23.33;51.43;101252.19;5537461;32;35089;-66
2022/10/07 13:56:19;;;;;;;;;;;;;;;23.29;52.17;101244.75;5551108;32;34628;-66
2022/10/07 13:59:25;;;;;;;;;;;;;;;23.42;51.77;101243.75;5550998;32;34220;-66
2022/10/07 14:02:31;;;;;;;;;;;;;;;23.11;51.83;101233.97;5550868;32;34889;-66
2022/10/07 14:05:51;;;;;;;;;;;;;;;22.65;53.02;101229.97;5525109;32;33964;-68
2022/10/07 14:08:55;;;;;;;;;;;;;;;22.51;52.83;101225.78;5531104;32;33965;-67
2022/10/07 14:12:11;;;;;;;;;;;;;;;22.24;52.64;101225.22;5531995;32;34914;-67
2022/10/07 14:15:23;;;;;;;;;;;;;;;22.10;54.12;101221.84;5530303;32;32662;-66
2022/10/07 14:18:30;;;;;;;;;;;;;;;21.97;54.07;101221.13;5529931;32;33318;-67
2022/10/07 14:21:39;;;;;;;;;;;;;;;21.69;56.76;101213.44;5530469;32;34975;-66
2022/10/07 14:24:50;;;;;;;;;;;;;;;21.65;56.35;101214.91;5530119;32;34498;-66
2022/10/07 14:28:03;;;;;;;;;;;;;;;21.47;57.00;101209.47;5531227;32;34711;-67
2022/10/07 14:38:22;;;;;;;;;;;;;;;21.03;60.21;101199.53;5530591;32;34187;-66
2022/10/07 14:41:27;;;;;;;;;;;;;;;20.78;61.06;101200.28;5531105;32;34624;-67
2022/10/07 14:44:31;;;;;;;;;;;;;;;20.74;60.63;101198.25;5530506;32;34841;-66
2022/10/07 14:47:37;;;;;;;;;;;;;;;20.82;59.82;101196.13;5530772;32;34646;-67
2022/10/07 14:50:44;;;;;;;;;;;;;;;20.66;60.53;101193.94;5530406;32;34763;-67
2022/10/07 14:53:51;;;;;;;;;;;;;;;20.59;61.89;101194.97;5531239;32;34955;-67
2022/10/07 14:56:56;;;;;;;;;;;;;;;20.43;63.41;101192.78;5530717;32;34235;-67
2022/10/07 15:00:00;;;;;;;;;;;;;;;20.35;62.42;101191.12;5531446;32;34927;-67
2022/10/07 15:03:05;;;;;;;;;;;;;;;20.17;63.36;101185.56;5531581;32;34786;-67
2022/10/07 15:06:09;;;;;;;;;;;;;;;20.07;65.19;101185.16;5531119;32;34635;-67
2022/10/07 15:09:15;;;;;;;;;;;;;;;19.95;65.37;101183.09;5529891;32;34266;-66
2022/10/07 15:12:20;;;;;;;;;;;;;;;19.86;66.24;101172.75;5530040;32;34427;-66
2022/10/07 15:15:24;;;;;;;;;;;;;;;19.72;68.19;101177.34;5530167;32;33525;-68
2022/10/07 15:18:29;;;;;;;;;;;;;;;19.53;70.35;101178.16;5530177;32;34897;-66
2022/10/07 15:21:34;;;;;;;;;;;;;;;19.43;71.16;101181.25;5529904;32;34774;-67
2022/10/07 15:24:40;;;;;;;;;;;;;;;19.35;71.74;101173.38;5531204;32;34312;-67
2022/10/07 15:27:47;;;;;;;;;;;;;;;19.21;75.03;101173.56;5531062;32;34669;-66
2022/10/07 15:30:59;;;;;;;;;;;;;;;19.12;75.35;101173.75;5530805;32;34654;-67
2022/10/07 15:34:05;;;;;;;;;;;;;;;19.06;74.01;101171.88;5530989;32;34662;-67
2022/10/07 15:37:13;;;;;;;;;;;;;;;18.95;75.91;101182.41;5530777;32;34240;-67
2022/10/07 15:40:17;;;;;;;;;;;;;;;18.84;77.07;101169.53;5530451;32;34425;-66
2022/10/07 15:43:23;;;;;;;;;;;;;;;18.69;77.37;101166.22;5530402;32;34620;-67
2022/10/07 15:46:27;;;;;;;;;;;;;;;18.47;77.67;101174.34;5527925;32;34645;-67
2022/10/07 15:49:31;;;;;;;;;;;;;;;18.28;80.67;101166.19;5530615;32;34707;-66
2022/10/07 15:52:38;;;;;;;;;;;;;;;18.18;80.51;101166.53;5530671;32;35091;-67
2022/10/07 15:55:54;;;;;;;;;;;;;;;18.04;83.16;101170.19;5530863;32;34919;-67
2022/10/07 15:59:00;;;;;;;;;;;;;;;17.86;83.68;101172.56;5530042;32;34349;-67
2022/10/07 16:02:06;;;;;;;;;;;;;;;17.69;83.74;101159.41;5530412;32;34970;-66
2022/10/07 16:05:18;;;;;;;;;;;;;;;17.63;85.18;101170.91;5529789;32;35524;-67
2022/10/07 16:08:24;;;;;;;;;;;;;;;17.44;87.88;101168.03;5540727;32;34190;-67
2022/10/07 16:11:33;;;;;;;;;;;;;;;17.45;86.31;101170.53;5549985;32;34703;-67
2022/10/07 16:14:38;;;;;;;;;;;;;;;17.24;87.10;101174.06;5536358;32;34291;-67
2022/10/07 16:17:42;;;;;;;;;;;;;;;17.03;88.26;101171.38;5550088;32;34329;-67
2022/10/07 16:20:48;;;;;;;;;;;;;;;16.92;88.37;101166.53;5535850;32;36281;-66
2022/10/07 16:23:56;;;;;;;;;;;;;;;16.86;88.16;101164.59;5549383;32;35017;-67
2022/10/07 16:27:01;;;;;;;;;;;;;;;16.76;89.66;101172.94;5549409;32;34875;-67
2022/10/07 16:33:26;;;;;;;;;;;;;;;16.50;90.95;101177.97;5549673;32;34265;-66